Arrowhead, Minnesota
Current Conditions -  °F | °C
As of 7:16 PM on Tuesday 27 Jan 2015 (Local Time) from KCOQ Reporting Station
Broken Clouds Broken Clouds  
Wind Chill: -2°   Ceiling: 10000
Heat Index: -2°   Visibility: 10mi
Dew Point: -5°   Wind: 3mph
Humidity: 80%   Direction: 120°ESE
Pressure: 30.11"   Gusts: NA
Location:  46.8211°N, 92.6871°W
Report Text: KCOQ 280116Z AUTO 12003KT 10SM SCT018 BKN100 120 M02/M05 A3011 RMK AO2
Loading
Personal Weather Stations






























Interactive Weather Map New forecast layout! Learn more

10-Day Weather Forecast

Advertisements
Track Severe Weather on mobile